createdAt,value
2019-06-08T00:01:30.259Z,97333.20
2019-06-08T00:04:00.957Z,97326.09
2019-06-08T00:06:31.706Z,97338.83
2019-06-08T00:09:03.216Z,97347.69
2019-06-08T00:11:34.176Z,97354.72
2019-06-08T00:14:10.752Z,97352.71
2019-06-08T00:16:42.775Z,97357.85
2019-06-08T00:19:15.296Z,97359.02
2019-06-08T00:21:46.359Z,97353.67
2019-06-08T00:24:17.783Z,97362.05
2019-06-08T00:26:48.754Z,97375.69
2019-06-08T00:29:20.320Z,97376.59
2019-06-08T00:31:51.345Z,97387.80
2019-06-08T00:34:22.700Z,97388.90
2019-06-08T01:03:02.175Z,97421.47
2019-06-08T01:05:32.800Z,97428.00
2019-06-08T01:08:03.844Z,97428.17
2019-06-08T01:10:35.391Z,97426.67
2019-06-08T01:13:07.667Z,97429.88
2019-06-08T01:15:39.275Z,97430.12
2019-06-08T01:18:10.272Z,97427.05
2019-06-08T01:20:41.689Z,97432.58
2019-06-08T01:23:12.376Z,97439.13
2019-06-08T01:25:43.333Z,97443.64
2019-06-08T01:28:13.989Z,97441.00
2019-06-08T01:30:44.663Z,97444.47
2019-06-08T01:33:15.343Z,97447.76
2019-06-08T01:35:45.999Z,97449.27
2019-06-08T01:38:16.957Z,97463.23
2019-06-08T01:40:47.706Z,97460.52
2019-06-08T01:43:18.336Z,97461.84
2019-06-08T01:45:49.273Z,97466.12
2019-06-08T01:48:20.757Z,97471.48
2019-06-08T01:50:56.787Z,97471.23
2019-06-08T01:53:28.797Z,97471.73
2019-06-08T01:56:00.184Z,97467.42
2019-06-08T01:58:31.519Z,97469.97
2019-06-08T02:01:02.459Z,97472.34
2019-06-08T02:03:34.671Z,97479.23
2019-06-08T02:06:05.357Z,97483.03
2019-06-08T02:08:35.645Z,97473.56
2019-06-08T02:11:06.673Z,97473.34
2019-06-08T02:13:37.355Z,97482.54
2019-06-08T02:16:07.699Z,97482.17
2019-06-08T02:18:48.960Z,97485.38
2019-06-08T02:21:11.103Z,97487.20
2019-06-08T02:23:41.727Z,97491.89
2019-06-08T02:26:12.464Z,97486.19
2019-06-08T02:28:43.088Z,97490.28
2019-06-08T02:31:14.150Z,97484.86
2019-06-08T02:33:45.581Z,97477.13
2019-06-08T02:36:15.921Z,97470.91
2019-06-08T02:38:46.553Z,97488.41
2019-06-08T02:41:17.225Z,97498.97
2019-06-08T02:43:48.144Z,97495.13
2019-06-08T02:46:18.850Z,97488.98
2019-06-08T02:49:03.419Z,97492.63
2019-06-08T02:51:23.763Z,97493.67
2019-06-08T02:53:54.376Z,97499.05
2019-06-08T02:56:26.080Z,97508.91
2019-06-08T02:58:59.670Z,97516.13
2019-06-08T03:01:35.978Z,97530.05
2019-06-08T03:04:06.691Z,97528.84
2019-06-08T03:06:41.403Z,97533.80
2019-06-08T03:09:11.171Z,97535.94
2019-06-08T03:11:43.286Z,97533.02
2019-06-08T03:14:14.820Z,97529.91
2019-06-08T03:16:45.779Z,97532.53
2019-06-08T03:19:22.163Z,97536.99
2019-06-08T03:21:49.192Z,97545.42
2019-06-08T03:24:19.759Z,97540.70
2019-06-08T03:26:50.411Z,97544.81
2019-06-08T03:29:21.742Z,97543.88
2019-06-08T03:31:56.149Z,97544.71
2019-06-08T03:34:24.843Z,97552.08
2019-06-08T03:36:57.509Z,97563.56
2019-06-08T03:39:28.726Z,97566.40
2019-06-08T03:41:59.665Z,97553.30
2019-06-08T03:44:29.962Z,97568.83
2019-06-08T03:47:00.942Z,97566.67
2019-06-08T03:49:44.993Z,97570.77
2019-06-08T03:52:05.466Z,97577.39
2019-06-08T03:54:36.597Z,97582.84
2019-06-08T03:57:09.431Z,97585.13
2019-06-08T03:59:41.059Z,97573.57
2019-06-08T04:02:20.919Z,97585.01
2019-06-08T04:04:52.268Z,97585.53
2019-06-08T04:07:23.302Z,97582.52
2019-06-08T04:09:54.732Z,97583.27
2019-06-08T04:12:26.100Z,97582.73
2019-06-08T04:14:57.443Z,97579.52
2019-06-08T04:17:28.697Z,97586.76
2019-06-08T04:20:10.272Z,97582.59
2019-06-08T04:22:32.737Z,97588.18
2019-06-08T04:25:03.441Z,97589.48
2019-06-08T04:27:34.218Z,97586.47
2019-06-08T04:30:05.569Z,97589.91
2019-06-08T04:32:36.167Z,97596.02
2019-06-08T04:35:07.712Z,97591.78
2019-06-08T04:37:40.277Z,97607.27
2019-06-08T04:40:12.474Z,97604.66
2019-06-08T04:42:44.421Z,97610.33
2019-06-08T04:45:16.638Z,97613.80
2019-06-08T04:47:50.046Z,97616.53
2019-06-08T04:50:23.079Z,97619.11
2019-06-08T04:52:53.457Z,97621.80
2019-06-08T04:55:24.437Z,97624.40
2019-06-08T04:57:55.766Z,97623.69
2019-06-08T05:00:31.197Z,97629.08
2019-06-08T05:02:59.192Z,97630.03
2019-06-08T05:05:30.233Z,97627.47
2019-06-08T05:08:01.181Z,97629.75
2019-06-08T05:10:31.936Z,97621.83
2019-06-08T05:13:03.044Z,97634.14
2019-06-08T05:15:33.841Z,97631.61
2019-06-08T05:18:04.484Z,97632.78
2019-06-08T05:20:39.228Z,97634.28
2019-06-08T05:23:08.275Z,97644.18
2019-06-08T05:25:52.472Z,97641.55
2019-06-08T05:28:23.369Z,97659.17
2019-06-08T05:30:54.579Z,97661.81
2019-06-08T05:33:25.173Z,97663.70
2019-06-08T05:35:56.302Z,97667.97
2019-06-08T05:38:27.271Z,97667.56
2019-06-08T05:40:58.618Z,97672.91
2019-06-08T05:43:29.250Z,97679.20
2019-06-08T05:45:59.984Z,97667.31
2019-06-08T05:48:30.628Z,97675.25
2019-06-08T05:51:04.102Z,97675.15
2019-06-08T05:53:34.293Z,97681.64
2019-06-08T05:56:04.933Z,97680.64
2019-06-08T05:58:36.015Z,97680.13
2019-06-08T06:01:06.348Z,97680.25
2019-06-08T06:03:36.938Z,97686.89
2019-06-08T06:06:08.032Z,97682.52
2019-06-08T06:08:38.642Z,97689.33
2019-06-08T06:11:09.639Z,97689.82
2019-06-08T06:13:40.618Z,97693.00
2019-06-08T06:16:11.318Z,97695.16
2019-06-08T06:18:42.863Z,97702.02
2019-06-08T06:21:13.844Z,97702.13
2019-06-08T06:23:45.213Z,97706.46
2019-06-08T06:26:16.699Z,97713.27
2019-06-08T06:28:47.598Z,97714.09
2019-06-08T06:31:18.431Z,97722.86
2019-06-08T06:33:50.102Z,97726.13
2019-06-08T06:36:20.802Z,97728.25
2019-06-08T06:38:52.262Z,97720.86
2019-06-08T06:41:23.152Z,97729.63
2019-06-08T06:43:53.783Z,97730.41
2019-06-08T06:46:24.707Z,97732.27
2019-06-08T06:48:55.716Z,97734.25
2019-06-08T06:51:26.966Z,97739.11
2019-06-08T06:53:57.585Z,97738.40
2019-06-08T06:56:47.276Z,97741.02
2019-06-08T06:59:17.921Z,97748.19
2019-06-08T07:01:52.643Z,97749.19
2019-06-08T07:04:21.083Z,97747.00
2019-06-08T07:06:52.479Z,97743.62
2019-06-08T07:09:23.185Z,97751.02
2019-06-08T07:11:56.658Z,97756.45
2019-06-08T07:14:27.547Z,97755.17
2019-06-08T07:16:58.842Z,97754.68
2019-06-08T07:19:29.799Z,97754.79
2019-06-08T07:22:01.175Z,97758.69
2019-06-08T07:24:31.482Z,97755.74
2019-06-08T07:27:02.455Z,97763.27
2019-06-08T07:29:33.363Z,97762.19
2019-06-08T07:32:04.055Z,97762.40
2019-06-08T07:34:35.035Z,97752.53
2019-06-08T07:37:06.084Z,97751.62
2019-06-08T07:39:37.335Z,97756.25
2019-06-08T07:42:08.208Z,97752.66
2019-06-08T07:44:38.824Z,97755.75
2019-06-08T07:47:09.345Z,97754.55
2019-06-08T07:49:40.994Z,97751.42
2019-06-08T07:52:11.698Z,97757.43
2019-06-08T07:54:42.434Z,97747.87
2019-06-08T07:57:13.026Z,97752.11
2019-06-08T07:59:43.693Z,97756.23
2019-06-08T08:02:14.846Z,97755.23
2019-06-08T08:04:46.072Z,97762.02
2019-06-08T08:07:16.420Z,97762.42
2019-06-08T08:09:48.621Z,97760.05
2019-06-08T08:12:19.829Z,97754.08
2019-06-08T08:14:51.283Z,97752.37
2019-06-08T08:17:22.204Z,97752.61
2019-06-08T08:19:53.556Z,97744.63
2019-06-08T08:22:26.337Z,97747.13
2019-06-08T08:25:02.719Z,97755.56
2019-06-08T08:27:29.051Z,97754.24
2019-06-08T08:30:01.705Z,97751.98
2019-06-08T08:32:32.208Z,97758.88
2019-06-08T08:35:03.143Z,97753.33
2019-06-08T08:37:34.219Z,97742.48
2019-06-08T08:40:07.709Z,97751.38
2019-06-08T08:42:55.636Z,97752.56
2019-06-08T08:45:27.681Z,97748.83
2019-06-08T08:48:14.765Z,97756.01
2019-06-08T08:50:31.130Z,97748.12
2019-06-08T08:53:02.480Z,97753.58
2019-06-08T08:55:33.110Z,97752.25
2019-06-08T08:58:04.072Z,97752.41
2019-06-08T09:00:34.907Z,97745.84
2019-06-08T09:03:23.295Z,97743.52
2019-06-08T09:05:38.730Z,97749.84
2019-06-08T09:08:13.683Z,97749.55
2019-06-08T09:10:44.344Z,97751.26
2019-06-08T09:13:15.110Z,97747.94
2019-06-08T09:15:47.982Z,97751.53
2019-06-08T09:18:18.907Z,97746.38
2019-06-08T09:20:49.994Z,97747.96
2019-06-08T09:23:21.917Z,97752.66
2019-06-08T09:25:55.707Z,97743.88
2019-06-08T09:28:29.125Z,97741.14
2019-06-08T09:31:02.223Z,97743.05
2019-06-08T09:33:32.180Z,97747.30
2019-06-08T09:36:04.797Z,97744.70
2019-06-08T09:38:35.445Z,97749.16
2019-06-08T09:41:08.355Z,97751.67
2019-06-08T09:43:38.751Z,97742.38
2019-06-08T09:46:09.682Z,97744.43
2019-06-08T09:48:40.784Z,97745.89
2019-06-08T09:51:21.613Z,97752.22
2019-06-08T09:53:54.203Z,97746.70
2019-06-08T09:56:25.178Z,97741.43
2019-06-08T09:58:57.310Z,97742.09
2019-06-08T10:01:28.755Z,97743.25
2019-06-08T10:04:02.366Z,97728.77
2019-06-08T10:06:32.566Z,97738.64
2019-06-08T10:09:03.040Z,97729.09
2019-06-08T10:11:37.849Z,97731.88
2019-06-08T10:14:12.712Z,97734.33
2019-06-08T10:16:44.058Z,97739.83
2019-06-08T10:19:14.732Z,97733.06
2019-06-08T10:21:48.048Z,97730.08
2019-06-08T10:24:17.738Z,97734.67
2019-06-08T10:26:48.119Z,97731.43
2019-06-08T10:29:19.204Z,97731.39
2019-06-08T10:31:49.873Z,97726.70
2019-06-08T10:34:20.933Z,97724.33
2019-06-08T10:36:51.529Z,97723.88
2019-06-08T10:39:21.868Z,97720.32
2019-06-08T10:41:52.181Z,97722.58
2019-06-08T10:44:22.531Z,97717.16
2019-06-08T10:46:53.537Z,97725.55
2019-06-08T10:49:24.914Z,97714.81
2019-06-08T10:51:55.503Z,97719.55
2019-06-08T10:54:27.740Z,97718.28
2019-06-08T10:57:00.294Z,97713.74
2019-06-08T10:59:30.653Z,97715.52
2019-06-08T11:02:04.973Z,97706.70
2019-06-08T11:04:34.389Z,97700.69
2019-06-08T11:07:09.617Z,97712.64
2019-06-08T11:09:38.217Z,97708.64
2019-06-08T11:12:14.611Z,97708.52
2019-06-08T11:14:41.695Z,97710.75
2019-06-08T11:17:12.073Z,97710.12
2019-06-08T11:19:43.128Z,97705.19
2019-06-08T11:22:15.171Z,97696.98
2019-06-08T11:24:48.539Z,97699.78
2019-06-08T11:27:19.514Z,97696.41
2019-06-08T11:29:50.443Z,97696.73
2019-06-08T11:32:21.582Z,97689.95
2019-06-08T11:34:52.214Z,97686.46
2019-06-08T11:37:22.947Z,97693.70
2019-06-08T11:39:53.267Z,97686.02
2019-06-08T11:42:25.567Z,97681.73
2019-06-08T11:44:58.535Z,97680.41
2019-06-08T11:47:31.007Z,97674.72
2019-06-08T11:50:00.621Z,97675.41
2019-06-08T11:52:31.306Z,97676.20
2019-06-08T11:55:03.751Z,97677.05
2019-06-08T11:57:37.377Z,97681.12
2019-06-08T12:00:23.500Z,97668.27
2019-06-08T12:02:42.152Z,97676.33
2019-06-08T12:05:14.294Z,97676.53
2019-06-08T12:07:47.915Z,97667.41
2019-06-08T12:10:18.451Z,97675.69
2019-06-08T12:12:49.235Z,97675.77
2019-06-08T12:15:21.205Z,97673.77
2019-06-08T12:17:52.618Z,97674.14
2019-06-08T12:20:24.374Z,97683.66
2019-06-08T12:22:55.217Z,97671.94
2019-06-08T12:25:25.932Z,97679.64
2019-06-08T12:27:58.558Z,97676.28
2019-06-08T12:30:29.773Z,97670.06
2019-06-08T12:33:00.713Z,97670.33
2019-06-08T12:35:31.833Z,97670.95
2019-06-08T12:38:02.576Z,97666.52
2019-06-08T12:40:33.500Z,97671.02
2019-06-08T12:43:04.207Z,97664.75
2019-06-08T12:45:35.376Z,97665.69
2019-06-08T12:48:10.320Z,97658.77
2019-06-08T12:50:38.858Z,97667.03
2019-06-08T12:53:14.478Z,97669.52
2019-06-08T12:55:42.168Z,97667.42
2019-06-08T12:58:14.505Z,97671.34
2019-06-08T13:00:48.264Z,97672.05
2019-06-08T13:03:18.868Z,97666.90
2019-06-08T13:05:49.663Z,97668.87
2019-06-08T13:08:21.838Z,97667.80
2019-06-08T13:10:52.550Z,97663.78
2019-06-08T13:13:24.326Z,97661.30
2019-06-08T13:15:57.917Z,97658.45
2019-06-08T13:18:28.427Z,97667.00
2019-06-08T13:21:15.253Z,97657.70
2019-06-08T13:23:31.726Z,97662.30
2019-06-08T13:26:02.662Z,97656.96
2019-06-08T13:28:33.657Z,97654.55
2019-06-08T13:31:04.656Z,97658.05
2019-06-08T13:33:37.950Z,97656.20
2019-06-08T13:36:08.173Z,97654.03
2019-06-08T13:38:38.536Z,97654.98
2019-06-08T13:41:10.858Z,97653.78
2019-06-08T13:43:41.929Z,97660.02
2019-06-08T13:46:14.002Z,97653.18
2019-06-08T13:48:44.938Z,97652.05
2019-06-08T13:51:19.887Z,97650.00
2019-06-08T13:53:50.061Z,97651.75
2019-06-08T13:56:22.223Z,97645.51
2019-06-08T13:58:53.069Z,97646.68
2019-06-08T14:01:23.943Z,97642.17
2019-06-08T14:03:58.156Z,97640.23
2019-06-08T14:06:28.769Z,97640.56
2019-06-08T14:08:59.749Z,97639.09
2019-06-08T14:11:30.783Z,97646.13
2019-06-08T14:14:01.617Z,97644.80
2019-06-08T14:16:33.021Z,97635.55
2019-06-08T14:19:04.385Z,97637.42
2019-06-08T14:21:38.797Z,97632.08
2019-06-08T14:24:08.194Z,97636.25
2019-06-08T14:26:39.231Z,97634.41
2019-06-08T14:29:09.859Z,97625.84
2019-06-08T14:31:40.753Z,97629.27
2019-06-08T14:34:11.332Z,97627.68
2019-06-08T14:36:42.582Z,97616.94
2019-06-08T14:39:13.019Z,97619.09
2019-06-08T14:41:43.666Z,97622.52
2019-06-08T14:44:14.698Z,97613.59
2019-06-08T14:46:45.307Z,97610.00
2019-06-08T14:49:18.298Z,97605.91
2019-06-08T14:51:49.415Z,97611.39
2019-06-08T14:54:25.180Z,97611.69
2019-06-08T14:56:54.134Z,97615.17
2019-06-08T14:59:25.510Z,97610.62
2019-06-08T15:01:56.160Z,97605.11
2019-06-08T15:04:33.356Z,97607.53
2019-06-08T15:06:59.988Z,97603.17
2019-06-08T15:09:30.614Z,97598.80
2019-06-08T15:12:01.691Z,97594.67
2019-06-08T15:14:35.051Z,97590.43
2019-06-08T15:17:05.609Z,97594.13
2019-06-08T15:19:36.192Z,97598.27
2019-06-08T15:22:08.769Z,97592.78
2019-06-08T15:24:39.159Z,97589.20
2019-06-08T15:27:09.866Z,97594.41
2019-06-08T15:29:40.719Z,97591.39
2019-06-08T15:32:11.925Z,97586.92
2019-06-08T15:34:42.608Z,97590.23
2019-06-08T15:37:13.013Z,97585.55
2019-06-08T15:39:43.661Z,97585.58
2019-06-08T15:42:14.482Z,97582.30
2019-06-08T15:44:47.840Z,97582.07
2019-06-08T15:47:18.562Z,97585.30
2019-06-08T15:49:50.470Z,97584.07
2019-06-08T15:52:22.415Z,97570.51
2019-06-08T15:54:53.546Z,97572.31
2019-06-08T15:57:24.641Z,97566.12
2019-06-08T15:59:58.420Z,97564.98
2019-06-08T16:02:29.536Z,97571.23
2019-06-08T16:05:00.283Z,97572.32
2019-06-08T16:07:32.761Z,97578.27
2019-06-08T16:10:03.688Z,97572.90
2019-06-08T16:12:35.182Z,97570.90
2019-06-08T16:15:06.618Z,97576.64
2019-06-08T16:17:37.318Z,97575.13
2019-06-08T16:20:08.667Z,97574.41
2019-06-08T16:22:39.301Z,97569.94
2019-06-08T16:25:10.051Z,97565.07
2019-06-08T16:27:40.675Z,97566.39
2019-06-08T16:30:11.499Z,97555.09
2019-06-08T16:32:42.225Z,97558.00
2019-06-08T16:35:12.984Z,97559.97
2019-06-08T16:37:44.119Z,97554.02
2019-06-08T16:40:14.844Z,97554.41
2019-06-08T16:42:46.118Z,97555.03
2019-06-08T16:45:16.720Z,97556.71
2019-06-08T16:47:47.781Z,97548.61
2019-06-08T16:50:24.434Z,97551.88
2019-06-08T16:52:50.561Z,97548.45
2019-06-08T16:55:21.609Z,97555.16
2019-06-08T16:57:51.896Z,97555.87
2019-06-08T17:00:34.525Z,97554.74
2019-06-08T17:03:02.469Z,97560.39
2019-06-08T17:05:35.201Z,97551.38
2019-06-08T17:08:05.914Z,97558.44
2019-06-08T17:10:36.695Z,97564.64
2019-06-08T17:13:11.053Z,97556.33
2019-06-08T17:15:40.752Z,97562.20
2019-06-08T17:18:11.978Z,97563.06
2019-06-08T17:20:43.279Z,97553.16
2019-06-08T17:23:13.929Z,97559.02
2019-06-08T17:25:44.663Z,97565.94
2019-06-08T17:28:15.585Z,97567.34
2019-06-08T17:30:46.185Z,97561.66
2019-06-08T17:33:17.354Z,97559.70
2019-06-08T17:35:48.796Z,97562.64
2019-06-08T17:38:19.116Z,97558.27
2019-06-08T17:40:50.066Z,97559.86
2019-06-08T17:43:20.797Z,97558.36
2019-06-08T17:45:51.152Z,97553.67
2019-06-08T17:48:21.748Z,97552.13
2019-06-08T17:50:52.169Z,97548.63
2019-06-08T17:53:22.825Z,97539.22
2019-06-08T17:55:53.853Z,97544.28
2019-06-08T17:58:24.502Z,97535.21
2019-06-08T18:00:56.594Z,97537.98
2019-06-08T18:03:27.903Z,97537.63
2019-06-08T18:05:58.937Z,97536.97
2019-06-08T18:08:29.568Z,97536.77
2019-06-08T18:11:00.522Z,97539.02
2019-06-08T18:13:31.162Z,97540.14
2019-06-08T18:16:02.325Z,97537.92
2019-06-08T18:18:34.121Z,97540.34
2019-06-08T18:21:05.180Z,97540.48
2019-06-08T18:23:39.174Z,97538.61
2019-06-08T18:26:09.043Z,97538.41
2019-06-08T18:28:42.284Z,97541.55
2019-06-08T18:31:12.541Z,97535.80
2019-06-08T18:33:45.340Z,97544.38
2019-06-08T18:36:17.378Z,97539.91
2019-06-08T18:38:48.577Z,97547.63
2019-06-08T18:41:19.354Z,97546.16
2019-06-08T18:43:52.513Z,97542.02
2019-06-08T18:46:22.351Z,97556.09
2019-06-08T18:48:53.201Z,97550.94
2019-06-08T18:51:30.283Z,97552.23
2019-06-08T18:54:11.354Z,97555.52
2019-06-08T18:56:33.282Z,97563.09
2019-06-08T18:59:03.591Z,97560.83
2019-06-08T19:01:34.535Z,97564.78
2019-06-08T19:04:07.512Z,97565.22
2019-06-08T19:06:40.593Z,97565.78
2019-06-08T19:09:12.347Z,97562.98
2019-06-08T19:11:43.834Z,97562.14
2019-06-08T19:14:14.450Z,97561.55
2019-06-08T19:16:51.459Z,97569.63
2019-06-08T19:19:18.858Z,97569.69
2019-06-08T19:21:50.444Z,97575.16
2019-06-08T19:24:21.890Z,97579.43
2019-06-08T19:26:52.932Z,97577.19
2019-06-08T19:29:23.877Z,97578.21
2019-06-08T19:31:54.240Z,97587.94
2019-06-08T19:34:24.823Z,97587.58
2019-06-08T19:36:57.322Z,97594.16
2019-06-08T19:39:28.634Z,97593.57
2019-06-08T19:42:00.230Z,97601.13
2019-06-08T19:44:30.948Z,97600.55
2019-06-08T19:47:01.680Z,97609.70
2019-06-08T19:49:32.784Z,97612.36
2019-06-08T19:52:03.760Z,97612.03
2019-06-08T19:54:34.736Z,97608.16
2019-06-08T19:57:07.806Z,97609.72
2019-06-08T19:59:39.944Z,97611.19
2019-06-08T20:02:10.570Z,97605.59
2019-06-08T20:04:42.751Z,97604.50
2019-06-08T20:07:14.068Z,97610.22
2019-06-08T20:09:45.865Z,97614.17
2019-06-08T20:12:18.673Z,97617.54
2019-06-08T20:14:51.029Z,97621.01
2019-06-08T20:17:37.151Z,97621.68
2019-06-08T20:20:11.215Z,97618.62
2019-06-08T20:22:41.812Z,97613.05
2019-06-08T20:25:13.570Z,97607.28
2019-06-08T20:27:45.257Z,97608.55
2019-06-08T20:30:30.641Z,97614.33
2019-06-08T20:33:02.106Z,97612.73
2019-06-08T20:35:33.046Z,97609.45
2019-06-08T20:38:03.608Z,97619.36
2019-06-08T20:40:35.131Z,97619.98
2019-06-08T20:43:07.139Z,97617.89
2019-06-08T20:45:38.044Z,97617.94
2019-06-08T20:48:08.407Z,97623.06
2019-06-08T20:50:39.672Z,97626.70
2019-06-08T20:53:10.034Z,97623.42
2019-06-08T20:55:40.711Z,97626.65
2019-06-08T20:58:11.785Z,97629.66
2019-06-08T21:00:43.562Z,97628.20
2019-06-08T21:03:14.319Z,97631.06
2019-06-08T21:05:46.248Z,97626.16
2019-06-08T21:08:18.405Z,97627.91
2019-06-08T21:10:59.426Z,97626.52
2019-06-08T21:13:30.336Z,97624.92
2019-06-08T21:16:01.450Z,97629.83
2019-06-08T21:18:32.095Z,97624.48
2019-06-08T21:21:07.965Z,97625.12
2019-06-08T21:23:37.955Z,97631.28
2019-06-08T21:26:08.582Z,97630.17
2019-06-08T21:28:40.445Z,97634.12
2019-06-08T21:31:11.489Z,97634.56
2019-06-08T21:33:42.529Z,97631.36
2019-06-08T21:36:12.878Z,97635.60
2019-06-08T21:38:49.363Z,97636.81
2019-06-08T21:41:17.258Z,97643.55
2019-06-08T21:43:51.618Z,97639.56
2019-06-08T21:46:20.228Z,97643.00
2019-06-08T21:48:51.937Z,97638.50
2019-06-08T21:51:26.140Z,97643.05
2019-06-08T21:53:58.499Z,97643.63
2019-06-08T21:56:33.560Z,97641.89
2019-06-08T21:59:04.156Z,97644.23
2019-06-08T22:01:37.543Z,97642.52
2019-06-08T22:04:08.554Z,97642.99
2019-06-08T22:06:39.376Z,97646.10
2019-06-08T22:09:10.689Z,97648.84
2019-06-08T22:11:41.357Z,97652.41
2019-06-08T22:14:12.144Z,97650.19
2019-06-08T22:16:43.701Z,97657.12
2019-06-08T22:19:14.855Z,97653.19
2019-06-08T22:21:47.912Z,97655.03
2019-06-08T22:24:17.957Z,97656.27
2019-06-08T22:26:48.931Z,97657.63
2019-06-08T22:29:28.311Z,97658.03
2019-06-08T22:31:59.770Z,97657.52
2019-06-08T22:34:30.276Z,97650.66
2019-06-08T22:37:02.263Z,97646.13
2019-06-08T22:39:33.067Z,97650.65
2019-06-08T22:42:03.841Z,97641.98
2019-06-08T22:44:37.350Z,97645.53
2019-06-08T22:47:08.235Z,97646.44
2019-06-08T22:49:39.009Z,97649.91
2019-06-08T22:52:09.703Z,97647.78
2019-06-08T22:54:40.415Z,97644.84
2019-06-08T22:57:10.952Z,97641.42
2019-06-08T22:59:41.975Z,97638.45
2019-06-08T23:02:13.331Z,97635.86
2019-06-08T23:04:44.319Z,97637.27
2019-06-08T23:07:26.547Z,97634.94
2019-06-08T23:09:48.318Z,97636.19
2019-06-08T23:12:19.636Z,97642.78
2019-06-08T23:14:54.297Z,97639.11
2019-06-08T23:17:25.351Z,97633.93
2019-06-08T23:19:57.796Z,97638.39
2019-06-08T23:22:28.413Z,97634.00
2019-06-08T23:25:01.091Z,97638.23
2019-06-08T23:27:32.040Z,97645.66
2019-06-08T23:30:03.815Z,97648.94
2019-06-08T23:32:35.150Z,97644.44
2019-06-08T23:35:07.948Z,97642.47
2019-06-08T23:37:45.138Z,97644.34
2019-06-08T23:40:17.949Z,97644.66
2019-06-08T23:42:48.466Z,97644.98
2019-06-08T23:45:19.084Z,97642.32
2019-06-08T23:47:50.682Z,97636.47
2019-06-08T23:50:21.379Z,97636.08
2019-06-08T23:52:52.093Z,97634.91
2019-06-08T23:55:22.708Z,97640.88
2019-06-08T23:57:54.533Z,97639.33
